Terminal Aerodrome Forecast
Issued by NWS Amarillo, TX

Current Version | Previous Version | Text Only | Print | Product List | Glossary Off
Versions: 1 2 3 4 5 6 7 8 9 10 11 12 13 14 15 16 17 18 19 20 21

000
FTUS44 KAMA 310832 AAB
TAFAMA
TAF AMD
KAMA 310832Z 3109/0106 17011KT P6SM VCTS SCT110CB
      TEMPO 3110/3112 VRB15G25KT 3SM -TSRA BKN040CB
     FM311600 10011KT P6SM SCT030 BKN110
     FM312000 07011KT P6SM OVC025 PROB30 3122/0104 4SM TSRA
      OVC015CB=

USA.gov is the U.S. government's official web portal to all federal, state and local government web resources and services.